Detall de PIREP

Printer-friendly versionPDF version

[2015/12/25 18:47:00]
Flight IATA:CT1004
Pilot Number:012
Company ICAO:CAT
Aircraft Type:C750/F
PAX:4
Departing Airport: EDDF
Destination Airport: LIEA
Alternate Airport:LIEO
Online: VATSIM
Route:ANEKI7L/18 ANEKI Y163 NATOR UN850 IXITO UL50 UNITA UM858 AJO UM194 REVDO
Flight Level:F450
No Slew and time accel
No pause
Crash detect
Detect pilot in Cockpit between each 30 and 45 minutes
18:47 Zero fuel Weight: 23016 Lbs, Fuel Weight: 5716 Lbs
18:47 VATSIM:EDDF 251820Z 20007KT 9999 BKN035 13/08 Q1029 NOSIG
18:47 VATSIM:LIEA 251820Z VRB01KT CAVOK 10/09 Q1033
18:47 X-MAS CHARTER
18:47 Parking Brakes off
18:55 Take-off
18:55 Take off Weight: 28631 Lbs
18:55 Wind: 198º @ 006 Knots Heading: 181º
18:55 POS N50º 01´ 14´´ E008º 31´ 33´´
18:55 Gear Up: 160 Knots
18:55 Flaps:2 at 160 Knots
18:55 Flaps:0 at 156 Knots
19:08 TOC
19:08 Fuel Weight: 5030 Lb
19:10 Wind:263º@038 Knots Heading: 174º Ground Speed: 510 Knots Altitude 45531 ft
19:25 Wind:256º@024 Knots Heading: 177º Ground Speed: 479 Knots Altitude 45656 ft
19:40 Wind:245º@033 Knots Heading: 179º Ground Speed: 473 Knots Altitude 45643 ft
19:51 TOD
19:51 Fuel Weight: 4183 Lb
19:55 Wind:231º@013 Knots Heading: 185º Ground Speed: 443 Knots Altitude 34812 ft
20:10 Wind:063º@005 Knots Heading: 190º Ground Speed: 236 Knots Altitude 5147 ft
20:11 Flaps:2 at 220 Knots
20:11 Flaps:3 at 203 Knots
20:12 Flaps:4 at 213 Knots
20:12 Gear Down: 211 Knots
20:13 Flaps:5 at 140 Knots
20:16 TouchDown:Rate -222 ft/min Speed: 120 Knots
20:16 VATSIM:LIEA 251950Z 35002KT 9000 MIFG NSC 09/08 Q1033
20:16 Land
20:16 Wind:358º@002 Knots
20:16 Heading: 201º
20:16 Flight Duration: 01:21
20:16 Landing Weight: 26901 Lbs
20:16 POS N40º 37´ 55´´ E008º 17´ 27´´
20:18 Parking brakes on
20:18 Block toBlock Duration: 01:31
20:18 Final Fuel: 3869 Lbls
20:18 Spent Fuel: 1847 Lbls
20:18 Flight Length: 571 NM
20:18 TOD Land Length: 141 NM

Exportar CSV

Powered by Drupal - Modified by Danger4k